Member area
Imprimable
Couvin, 10/02/2018, BEL - Trail et Marche des 3 Vallées
List of reports > 33km - Result
Search: Page: [1]
117 Entries
 
Complains are not accepted anymore. Results are final.
Category
PosNrNameAgeNATLeagueTeamRealTimeTkmMoy.PlaceNameScrCity
1.617DESCAMPS FLORIAN27BELFLOTRAINING2:22:442:22:444:20 13.871sh1ETTERBEEK
2.709VAN LONDERSELE JONATHAN35BELHRC2:23:292:23:294:21 13.802sh2BIERBEEK
3.728BROSSARD ERIC48BELSKYRUNNER TEAM2:29:282:29:284:32 13.251ve13
4.737VAN RANST WIEBE28BEL2:37:292:37:294:47 12.573sh4
5.705VAN DER VEKEN GREG26BELBIOTRAIL RUNNING TEAM2:38:052:38:054:48 12.534sh5GRAND-LEEZ
6.616DEROO FRANÇOIS34FRACLLL ARMENTIÈRES2:42:062:42:064:55 12.225sh6BOESCHEPE
7.666MICHEL CHRISTOPHER34BELJACO2:45:192:45:195:01 11.986sh7FORGES
8.600AUDRAN FREDERIC45FRALES TRAILEURS DE LA POINT2:45:332:45:335:01 11.962ve18VIREUX-WALLERAND
9.722BAZEILLE DAVID38BEL2:47:452:47:455:05 11.807sh9
10.619DETRAIT HUGUES30BELACCO2:48:342:48:345:07 11.758sh10PHILIPPEVILLE
11.621DEWANDELEER BART31BELKWB WAMBEEK JOGGING TEAM2:48:382:48:385:07 11.749sh11GOOIK
12.654LAOUREUX DENIS44BEL2:49:082:49:085:08 11.713ve112BRUXELLES
13.671ORTILLON EMMANUEL45FRAAS SOMMER2:49:562:49:565:09 11.654ve113GLAIRE
14.717VISSE STEPHANE51FRALES TRAILEURS DE LA POINT2:50:392:50:395:11 11.601ve214RANCENNES
15.658LEROUX MICKAEL43FRALES TRAILEURS DE LA POINT2:50:432:50:435:11 11.605ve115GIVET
16.751SOYEZ FRANK53BEL2:50:522:50:525:11 11.592ve216
17.754GAYE JEAN FRANCOISE40BEL2:52:172:52:175:14 11.496ve117
18.765RENARD YVES52BELCTA2:52:222:52:225:14 11.493ve218
19.635GHYSEL THOMAS31BEL2:52:412:52:415:14 11.4710sh19SENEFFE
20.648HUBEAUX DENIS40BELRUS BIESME2:53:152:53:155:15 11.437ve1205640
21.628DURIN CHRISTOPHE32BELJC QUIÉVRAIN2:54:542:54:545:18 11.3211sh21ROISIN
22.650KLEISCH OLIVIER51FRAAS SOMMER2:55:452:55:455:20 11.274ve222SEDAN
23.667MOULIN JORDY30BELPOPUELLES2:56:052:56:055:21 11.2412sh23VAULX
24.602BERNARD CHRISTOPHE47FRA2:57:012:57:015:22 11.198ve124BAISIEUX
25.690RIGUELLE FRANÇOIS37BELFLEU / POTOS ROSES3:01:053:01:055:30 10.9313sh25LIGNY
26.726BRACONNIER MIGUEL29BEL3:01:253:01:255:30 10.9114sh26
27.680PONCELET ANTOINE28BEL3:01:593:01:595:31 10.8815sh27JAMBES
28.720REGHEM THIERRY59BELSHARKS TRIATHLON3:02:573:02:575:33 10.825ve228
29.686RAUCENT MARTIN31BEL3:03:103:03:105:34 10.8116sh29BRUXELLES
30.652KRAUCH BRUNO39BELRUNNING CONCEPT3:03:133:03:135:34 10.8117sh30FLORENVILLE
31.685RATHMES JEAN-MARC46BELLES LEUS3:03:253:03:255:34 10.809ve131PESCHE
32.740BUYST JELLE33BEL3:03:253:03:255:34 10.8018sh32
33.682RADERMECKER NICOLAS36BELFLEURUS / GERPINNES & CO3:03:403:03:405:34 10.7819sh33GOUGNIES
34.761HUBERT CHARLES35BELTCDM3:04:043:04:045:35 10.7620sh34MONS
35.657LEERG OLIVIER43BEL#FATT3:04:163:04:165:36 10.7510ve135KORTRIJK
36.721BUTTAERT FRANE47BEL3:04:163:04:165:36 10.7511ve136
37.734BIERWISCH JEAN MICHEL46BELTOUS MAUREEN3:04:263:04:265:36 10.7412ve137
38.759BUTTIENS STEVE35BEL3:05:063:05:065:37 10.7021sh38
39.745FONTAINE GILLES22BEL3:06:203:06:205:39 10.6322sh39
40.733VINCENT NICOLAS48BEL3:07:173:07:175:41 10.5713ve140
41.649JACQUES EDDY48BEL3:07:373:07:375:42 10.5514ve141LA HESTRE
42.681POUCET ANTOINE36BEL3:09:313:09:315:45 10.4523sh42CHIMAY
43.634GEERTS MERIJN44BEL3:09:353:09:355:45 10.4415ve143WILSELE
44.748THIEBAUT WILFRIED28BEL3:10:223:10:225:47 10.4024sh44
45.678PIAT FABRICE33FRA3:10:333:10:335:47 10.3925sh46LUSTIN
46.684RAPHAËL YVES56BEL3:10:343:10:345:47 10.396ve247MONTIGNY LE TILLEUL
47.750DECOURTY JEAN PIERRE65BELMADRES3:10:483:10:485:47 10.381ve348
48.747LEDOUX ALEXIS32BEL3:11:043:11:045:48 10.3626sh49
49.706VAN DE VELDE SÉBASTIEN47FRA3:12:173:12:175:50 10.3016ve150VIREUX-MOLHAIN
50.746GAULIER PIERRE49BEL3:12:443:12:445:51 10.2717ve151
51.675PESTIAUX GRÉGORY39BELPEARTEAM3:13:153:13:155:52 10.2527sh52PESCHE
52.708VANHERPE KASPER24BEL3:14:313:14:315:54 10.1828sh53GREMBERGEN
53.664MATHIJSSEN BASTIAN47NLDB- RUNNING3:14:323:14:325:54 10.1818ve154ZONNEMAIRE
54.691ROBERT VERWIJS41NLDROBERT VERWIJS3:14:343:14:345:54 10.1819ve155ZONNEMAIRE
55.625DORCHY CEDRIC40BELXTRA TIME RUNNING3:15:323:15:325:56 10.1320ve156ANTOING
56.732DAUSSY EMERIC36BELCSCV HIRSON3:15:333:15:335:56 10.1329sh57
57.744DJENAB LAURENT31BELTRAILER DE LA POINTE3:15:503:15:505:57 10.1130sh58
58.656LEDUC AYMERIC43FRAETM3:18:233:18:236:01 9.9821ve159MOUSCRON
59.736BLANCO RAMON57BEL3:18:263:18:266:01 9.987ve260
60.763BRANLE DAVID49BELLDLV3:18:503:18:506:02 9.9622ve161CHATELINEAU
61.639GRIBOUT JEAN PHILIPPE48FRAGRAC ATHLETISME3:19:223:19:226:03 9.9323ve162LA FRANCHEVILLE
62.712VELARD LAURENT48FRATRAIL AVENTURES3:19:283:19:286:03 9.9324ve163REIMS
63.704VAN BELLE MAXIME32BELELEMENT TREK3:21:083:21:086:06 9.8431sh65FRASNES (COUVIN)
64.739SMEDTS HANS37BEL3:21:263:21:266:07 9.8332sh66
65.743BURNIAT ETIENNE57BEL3:21:403:21:406:07 9.828ve267
66.757DEMEUNIER PASCAL58BEL3:22:263:22:266:09 9.789ve268
67.758PIRENNE DAVID43BEL3:24:083:24:086:12 9.7025ve169
68.725LANNOO MICHAEL43BELCABW TRAIL3:24:103:24:106:12 9.7026ve170
69.741DORCHY QUENTIN45BELRC TEMPLEUVE3:24:193:24:196:12 9.6927ve171
70.760GERSDORFF FREDERIC41BEL3:24:213:24:216:12 9.6928ve172
71.738VAN HULLE FRANCOIS33BEL3:25:263:25:266:14 9.6433sh73
72.735CHARLOT FABRICE48BELZATAC CHARLEROI3:25:523:25:526:15 9.6229ve174
73.715VERSTICHEL ALAIN56BELNÉANT3:25:543:25:546:15 9.6210ve275THUIN
74.631FOUBERT BENOIT40BEL3:26:343:26:346:16 9.5930ve177GUYANCOURT
75.699SOUTMANS THIBAUT28BELTNT/XVDULOUP3:29:363:29:366:22 9.4534sh78NAMUR
76.626DOUETTE ERIC63FRALES TRAILEURS DE LA POINT3:29:553:29:556:22 9.432ve379VIREUX MOLHAIN
77.755DAOUST TANGUY37BEL3:30:183:30:186:23 9.4235sh80HAMOIS
78.669NICOLAS OLIVIER51FRACA SEDAN3:30:353:30:356:23 9.4011ve281BALAN
79.661LUYCKX JACQUES49BELJCPMF - RAMILLIES3:31:213:31:216:25 9.3731ve182PERWEZ
80.646HENRARD JEREMY36BELROCCO TEAM3:32:433:32:436:27 9.3136sh83BLATON
81.756ZEDDA TIMO53BELMADRES3:33:383:33:386:29 9.2712ve284
82.638GLASSET JULIEN43FRA3:35:173:35:176:32 9.2032ve186SOLRE LE CHÂTEAU
83.710VAN NUFFELEN JULIEN40BELLES CASTORS3:36:083:36:086:33 9.1633ve187PONT DE LOUP
84.679POINCELET DENIS48FRA3:38:053:38:056:37 9.0834ve188HAYBES
85.700STEVENS YVES42BEL3:38:543:38:546:38 9.0535ve189SINT-AMANDS
86.620DE WACHTER LIEVEN41BELIMPALA RUNNING TEAM3:38:543:38:546:38 9.0536ve190SINT-AMANDS
87.614DELCART KRISTOF39BEL3:38:553:38:556:39 9.0437sh91BORNEM
88.692RODIA FRÉDÉRIC45BELMADRES3:42:543:42:546:46 8.8837ve193FRAMERIES
89.645HENNEBERT BERTRAND38BELARAMIS RUNNING MONS3:42:543:42:546:46 8.8838sh94SAINT SYMPHORIEN
90.670OLIVIER LOIC34BEL3:43:553:43:556:48 8.8439sh95MAUBRAY
91.644HATTAS WERNER58BELWACCOO TRAILERS3:45:313:45:316:51 8.7813ve296WOMMELGEM
92.711VAN ROY DIMITRI40BEL3:45:323:45:326:51 8.7838ve197GROBBBENDONK
93.677PETITJEAN THOMAS40BELTRAILER DES FAGNES3:46:393:46:396:53 8.7439ve198FLORENNES
94.676PETITJEAN DAMIEN43BEL3:46:403:46:406:53 8.7440ve199MONTIGNY-LE-TILLEUL
95.647HINNEKENS STIJN43BEL3:48:003:48:006:55 8.6841ve1102HARELBEKE
96.618DESMET NICOLAAS41BEL3:48:023:48:026:55 8.6842ve1103KORTRIJK
97.723CHARLIER THIBAULT38BEL3:48:253:48:256:56 8.6740sh104
98.730BRESSAN FABRIZIO49BELSL GOSP3:48:283:48:286:56 8.6743ve1105
99.609CARPI EDI40BELGRC3:49:183:49:186:57 8.6444ve1106GERPINNES
100.91FILIPPONE SERGE42FRATRAILEURS DE LA POINTE3:52:193:52:197:03 8.5245ve1107VIREUX MOLHAIN
101.718WOLTÈCHE HERVÉ36BEL3:52:313:52:317:03 8.5241sh108FLÉRON
102.729CIRELLI MARIO66BELGOSP3:53:273:53:277:05 8.483ve3109
103.624DI CATALDO MICHEL59ITAGOSSELIES SPORT3:53:283:53:287:05 8.4814ve2110THY LE CHATEAU
104.637GIOVANNANGELO ALAIN66BELESM3:53:293:53:297:05 8.484ve3111NIVELLES
105.703VALENTI DAVID47BEL3:54:153:54:157:06 8.4546ve1112CHARLEROI
106.693ROUPIN KÉVIN24BEL4:02:584:02:587:22 8.1542sh114PÉRONNES-LEZ-ANTOING
107.668MULOT ROMAIN41FRACMA4:06:074:06:077:28 8.0547ve1115VILLERS-SEMEUSE
108.687RAVIAT EDDY57FRA4:08:084:08:087:32 7.9815ve2116FUMAY
109.629DUTRIEUX RONALD50BEL4:08:264:08:267:32 7.9716ve2117SAINT-SERVAIS
110.612CURATI UMBERTO37ITAJCHSH4:10:274:10:277:36 7.9143sh118GERPINNES
111.632FOUBERT GILLES44BEL4:11:144:11:147:37 7.8848ve1119CHAMPS-SUR-MARNE
112.610CESTARO ETTORE45BELJCHSH4:18:574:18:577:51 7.6549ve1121HAM-SUR-HEURE-NALINNES
113.766MARTENS FRANCOIS43BELJCHSH4:18:584:18:587:51 7.6550ve1122
114.727GRUSELLE JONATHAN41BEL4:27:264:27:268:07 7.4051ve1123
115.630FEUILLET JOHAN53BELRAINBOW MULTISPORT TEAM4:30:264:30:268:12 7.3217ve2124DEUX-ACREN
116.724CASSETTO BERNARD66BEL4:33:184:33:188:17 7.245ve3125
117.731DELMOTTE OLIVIER40BELGRANY4:48:004:48:008:44 6.8852ve1126
DNF: did not finish; DSQ: disqualified; Speed in km/h
Page: [1]